Tiempo atmosférico en la estación meteorológica de Liceras, Soria (1150 m.)



Fecha
DESCASC
Temp. máxima en grados centígrados (hora)
DESCASC
Temp. mínima en grados centígrados (hora)
DESCASC
Temp. media en grados centígrados
DESCASC
Racha de viento máxima en m/sg (hora)
DESCASC
Velocidad máxima media en intervalos de 10 minutos(hora)
DESCASC
Precipitaciones diarias en mm
DESCASC
Precipitaciones de 00:00 a 06:00 en mm
DESCASC
Precipitaciones de 06:00 a 12:00 en mm
DESCASC
Precipitaciones de 12:00 a 18:00 en mm
DESCASC
Precipitaciones de 18:00 a 24:00 en mm
DESCASC
14-12-2019 8 (14:10) 5.8 (08:30) 6.9 17.5 (04:00) 12.5 (03:00) 0 0 0 0 0
13-12-2019 10.2 (13:40) 7.1 (09:40) 8.6 22.22 (07:10) 16.67 (07:40) 2.2 2.2 0 0 0
12-12-2019 7.7 (23:50) 1 (02:40) 4.3 20.28 (15:50) 13.33 (16:50) 4 0 0.4 2.8 0.8
11-12-2019 7 (04:50) 1.1 (00:00) 4.1 15.28 (21:00) 10.83 (23:10) 3 0 3 0 0
10-12-2019 10.4 (14:40) -0.4 (07:40) 5 6.67 (23:50) 5 (23:40) 0 0 0 0 0
09-12-2019 8.3 (14:30) 1.8 (23:00) 5.1 12.5 (05:50) 9.17 (14:00) 0 0 0 0 0
08-12-2019 7.9 (12:40) 0.4 (00:00) 4.2 10.28 (14:30) 7.5 (13:20) 1.6 0 0 1 0.6
07-12-2019 11.3 (12:50) -0.2 (00:00) 5.6 4.44 (05:10) 3.89 (05:20) 0 0 0 0 0
06-12-2019 11.4 (12:40) 0.8 (00:00) 6.1 8.33 (02:20) 5.83 (02:20) 0 0 0 0 0
05-12-2019 8.2 (14:50) 1.6 (00:00) 4.9 10 (12:00) 5.83 (12:20) 0 0 0 0 0
04-12-2019 7.8 (14:20) 0.3 (00:50) 4.1 8.61 (05:50) 6.11 (07:10) 2 1.8 0.2 0 0
03-12-2019 4.2 (12:50) -4.8 (-00:0) -0.3 9.72 (16:00) 6.39 (16:00) 0 0 0 0 0
02-12-2019 7 (14:40) -1.8 (-00:0) 2.6 15.83 (16:00) 8.61 (16:30) 0 0 0 0 0
01-12-2019 7.8 (14:00) 1 (00:00) 4.4 8.89 (23:59) 5.56 (23:59) -- 0 -- 0.2 0
30-11-2019 12.5 (12:30) 3 (00:00) 7.8 16.94 (16:50) 9.72 (20:50) 11.2 0.8 0 6.4 4
29-11-2019 11.9 (12:40) 6.2 (00:00) 9 11.11 (00:30) 6.67 (00:10) 2.6 2 0.4 0.2 0
28-11-2019 11 (13:10) 6.5 (01:40) 8.8 16.67 (16:00) 9.17 (14:10) 0 0 0 0 0
27-11-2019 9.6 (00:00) 5.4 (00:00) 7.5 17.22 (01:30) 11.11 (01:30) 0 0 0 0 0
26-11-2019 14.5 (10:40) 5.8 (00:00) 10.2 18.61 (23:10) 11.11 (23:20) 1 0 0.4 0 0.6
25-11-2019 11.1 (15:10) 7.3 (08:30) 9.2 16.94 (03:30) 11.94 (03:50) 0.8 0.8 0 0 0
24-11-2019 8.9 (23:59) 1.7 (00:00) 5.3 12.5 (02:30) 8.89 (02:30) 0 0 0 0 0
23-11-2019 6.4 (15:00) 1.6 (00:00) 4 24.44 (04:00) 13.89 (07:20) 2.4 2.4 0 0 0
22-11-2019 9.5 (16:30) 3.5 (00:00) 6.5 21.94 (12:00) 11.39 (19:40) 4.4 0 0.8 1.2 2.4
21-11-2019 7.3 (13:00) 2.1 (00:00) 4.7 10.83 (12:10) 7.22 (12:20) 2.2 0.2 0.2 1.8 0
20-11-2019 8.1 (13:00) -0.5 (01:10) 3.8 10 (16:00) 5.28 (16:00) 1 0 0 0 1
19-11-2019 6.9 (12:40) -1.5 (-00:0) 2.7 8.33 (11:40) 6.11 (11:40) 0 0 0 0 0
18-11-2019 3.9 (13:50) -0.5 (-00:0) 1.7 12.78 (16:00) 8.06 (13:50) 0 0 0 0 0
17-11-2019 5.8 (11:30) 0 (00:00) 2.9 15 (12:00) 9.44 (14:50) 7.8 0 0.4 6 1.4
16-11-2019 4.1 (14:40) -1.3 (-00:0) 1.4 12.78 (16:00) 8.61 (11:30) 0.2 0.2 0 0 0

Gráficas

Temp. máximas Temp. mínimas Temp. medias Precipitaciones Rachas de viento máximas Velocidades máximas media en intervalos de 10 minutos

Datos horarios

Fecha y hora oficial Temperatura (ºC) Velocidad del viento (km/h) Dirección del viento Racha (km/h) Dirección de racha Precipitación (mm) Presión (hPa) Tendencia (hPa) Humedad (%)
2019-12-15 23:00:00 6.2 27 Sur 48 Sur 0 -- -- 86
2019-12-15 22:00:00 6.3 22 Sur 39 Sur 0 -- -- 86
2019-12-15 21:00:00 6.4 17 Sur 36 Sudoeste 0 -- -- 85
2019-12-15 20:00:00 6.1 21 Sur 35 Sur 0 -- -- 86
2019-12-15 19:00:00 6.1 19 Sur 32 Sur 0 -- -- 85
2019-12-15 18:00:00 5.9 16 Sur 30 Sur 0 -- -- 85
2019-12-15 17:00:00 6.4 18 Sur 34 Sur 0 -- -- 82
2019-12-15 16:00:00 7.9 18 Sur 30 Sur 0 -- -- 76
2019-12-15 15:00:00 9.9 5 Sudoeste 22 Sudoeste 0 -- -- 59
2019-12-15 14:00:00 9.3 15 Sur 28 Sur 0 -- -- 67
2019-12-15 13:00:00 9.7 13 Sur 22 Sur 0 -- -- 60
2019-12-15 12:00:00 9 14 Sur 20 Sur 0 -- -- 63
2019-12-15 11:00:00 7.2 10 Noroeste 23 Sudoeste 0 -- -- 74
2019-12-15 10:00:00 7.5 10 Sudoeste 21 Sudoeste 0 -- -- 70
2019-12-15 09:00:00 4.8 11 Sur 19 Sur 0 -- -- 81
2019-12-15 08:00:00 5.2 15 Sudoeste 28 Sudoeste 0 -- -- 79
2019-12-15 07:00:00 6 12 Oeste 24 Oeste 0 -- -- 77
2019-12-15 06:00:00 5.6 9 Sudoeste 23 Oeste 0 -- -- 80
2019-12-15 05:00:00 6.3 12 Oeste 31 Oeste 0 -- -- 77
2019-12-15 04:00:00 6.5 12 Oeste 35 Oeste 0 -- -- 76
2019-12-15 03:00:00 6.5 9 Oeste 29 Oeste 0 -- -- 79
2019-12-15 02:00:00 6.7 19 Noroeste 33 Oeste 0 -- -- 78
2019-12-15 01:00:00 6.8 23 Noroeste 44 Oeste 0 -- -- 77
2019-12-15 00:00:00 7 29 Oeste 42 Oeste 0 -- -- 74
2019-12-14 23:00:00 6.8 29 Oeste 41 Oeste 0 -- -- 74
2019-12-14 22:00:00 6.8 23 Oeste 44 Oeste 0 -- -- 75
2019-12-14 21:00:00 6.8 19 Oeste 38 Oeste 0 -- -- 80
2019-12-14 20:00:00 7.3 25 Oeste 38 Oeste 0 -- -- 78
2019-12-14 19:00:00 7.3 22 Oeste 41 Oeste 0 -- -- 75
2019-12-14 18:00:00 7.3 17 Oeste 32 Noroeste 0 -- -- 74
2019-12-14 17:00:00 7.6 17 Oeste 39 Oeste 0 -- -- 75
2019-12-14 16:00:00 7.9 21 Oeste 37 Oeste 0 -- -- 74
2019-12-14 15:00:00 7.9 25 Oeste 39 Oeste 0 -- -- 74
2019-12-14 14:00:00 7.6 31 Oeste 44 Oeste 0 -- -- 74
2019-12-14 13:00:00 7.1 30 Oeste 49 Oeste 0 -- -- 75
2019-12-14 12:00:00 6.8 27 Oeste 50 Noroeste 0 -- -- 77
2019-12-14 11:00:00 6.1 30 Noroeste 43 Noroeste 0 -- -- 80
2019-12-14 10:00:00 6 29 Oeste 45 Oeste 0 -- -- 79
2019-12-14 09:00:00 5.9 28 Oeste 53 Noroeste 0 -- -- 81
2019-12-14 08:00:00 5.9 35 Noroeste 53 Oeste 0 -- -- 82
2019-12-14 07:00:00 5.9 40 Noroeste 59 Noroeste 0 -- -- 84
2019-12-14 06:00:00 6.2 39 Noroeste 58 Noroeste 0 -- -- 85
2019-12-14 05:00:00 6.3 35 Noroeste 58 Oeste 0 -- -- 83
2019-12-14 04:00:00 6.5 41 Noroeste 63 Noroeste 0 -- -- 82
2019-12-14 03:00:00 6.5 45 Noroeste 62 Noroeste 0 -- -- 85
2019-12-14 02:00:00 6.8 39 Noroeste 54 Oeste 0 -- -- 84
2019-12-14 01:00:00 7.1 41 Noroeste 58 Oeste 0 -- -- 84
2019-12-14 00:00:00 7.3 44 Noroeste 71 Oeste 0 -- -- 85
2019-12-13 23:00:00 7.6 38 Noroeste 64 Oeste 0 -- -- 87
2019-12-13 22:00:00 7.9 45 Noroeste 65 Noroeste 0 -- -- 87
2019-12-13 21:00:00 7.8 46 Noroeste 67 Oeste 0 -- -- 91
2019-12-13 20:00:00 8.2 46 Noroeste 66 Oeste 0 -- -- 89
2019-12-13 19:00:00 8.6 48 Oeste 65 Oeste 0 -- -- 89
2019-12-13 18:00:00 8.9 40 Noroeste 61 Noroeste 0 -- -- 90
2019-12-13 17:00:00 9.2 46 Oeste 69 Noroeste 0 -- -- 89
2019-12-13 16:00:00 9.3 44 Noroeste 67 Oeste 0 -- -- 89
2019-12-13 15:00:00 9.4 49 Noroeste 67 Oeste 0 -- -- 87
2019-12-13 14:00:00 10 49 Noroeste 69 Noroeste 0 -- -- 85
2019-12-13 13:00:00 9 48 Noroeste 74 Oeste 0 -- -- 88
2019-12-13 12:00:00 8.3 51 Noroeste 77 Noroeste 0 -- -- 90
2019-12-13 11:00:00 7.7 54 Noroeste 77 Oeste 0 -- -- 90
2019-12-13 10:00:00 7.3 56 Noroeste 77 Oeste 0 -- -- 91
2019-12-13 09:00:00 7.2 53 Noroeste 75 Noroeste 0 -- -- 92
2019-12-13 08:00:00 7.6 53 Noroeste 80 Noroeste 0 -- -- 93
2019-12-13 07:00:00 7.8 59 Noroeste 79 Oeste 0 -- -- 93
2019-12-13 06:00:00 8 55 Noroeste 79 Oeste 0 -- -- 94
2019-12-13 05:00:00 8.1 50 Oeste 67 Oeste 0 -- -- 97
2019-12-13 04:00:00 8.1 42 Oeste 62 Oeste 0.4 -- -- 98
2019-12-13 03:00:00 8 40 Oeste 64 Oeste 0 -- -- 98
2019-12-13 02:00:00 8 48 Oeste 64 Oeste 0.4 -- -- 97
2019-12-13 01:00:00 7.8 39 Oeste 68 Oeste 1.4 -- -- 98
2019-12-13 00:00:00 7.7 40 Oeste 65 Oeste 0.2 -- -- 97
2019-12-12 23:00:00 7.5 42 Oeste 67 Noroeste 0 -- -- 98
2019-12-12 22:00:00 7.1 41 Oeste 65 Oeste 0.2 -- -- 98
2019-12-12 21:00:00 6.5 37 Oeste 57 Oeste 0 -- -- 98
2019-12-12 20:00:00 5.9 39 Oeste 66 Noroeste 0.2 -- -- 97
2019-12-12 19:00:00 5.3 45 Oeste 66 Oeste 0.2 -- -- 97
2019-12-12 18:00:00 4.8 47 Oeste 67 Oeste 0 -- -- 96
2019-12-12 17:00:00 4.4 46 Oeste 67 Oeste 0.2 -- -- 95
2019-12-12 16:00:00 4.2 42 Oeste 73 Oeste 0.4 -- -- 95
2019-12-12 15:00:00 3.7 38 Oeste 64 Oeste 1 -- -- 95
2019-12-12 14:00:00 3.2 33 Oeste 64 Oeste 0.8 -- -- 93
2019-12-12 13:00:00 3 36 Oeste 55 Oeste 0.4 -- -- 93
2019-12-12 12:00:00 3.2 31 Oeste 60 Oeste 0.2 -- -- 93
2019-12-12 11:00:00 3.2 40 Oeste 58 Oeste 0.2 -- -- 94
2019-12-12 10:00:00 3 33 Oeste 55 Oeste 0 -- -- 94
2019-12-12 09:00:00 2.6 37 Oeste 57 Oeste 0 -- -- 95
2019-12-12 08:00:00 2.7 36 Oeste 56 Oeste 0 -- -- 92
2019-12-12 07:00:00 2.3 33 Oeste 53 Oeste 0 -- -- 93
2019-12-12 06:00:00 1.9 33 Oeste 51 Oeste 0 -- -- 95
2019-12-12 05:00:00 1.7 31 Noroeste 47 Oeste 0 -- -- 95
2019-12-12 04:00:00 1.5 30 Noroeste 49 Noroeste 0 -- -- 95
2019-12-12 03:00:00 1.1 35 Oeste 50 Oeste 0 -- -- 95
2019-12-12 02:00:00 1.2 35 Noroeste 53 Oeste 0 -- -- 94
2019-12-12 01:00:00 1.3 36 Noroeste 56 Oeste 0 -- -- 93
2019-12-12 00:00:00 1.5 35 Noroeste 54 Noroeste 0 -- -- 92
2019-12-11 23:00:00 1.1 36 Noroeste 50 Noroeste 0 -- -- 92
2019-12-11 22:00:00 1.2 31 Noroeste 48 Noroeste 0 -- -- 89
2019-12-11 21:00:00 1.7 35 Oeste 55 Oeste 0 -- -- 84
2019-12-11 20:00:00 1.9 28 Noroeste 43 Noroeste 0 -- -- 81
2019-12-11 19:00:00 1.8 24 Noroeste 37 Noroeste 0 -- -- 82
2019-12-11 18:00:00 2.6 26 Noroeste 42 Noroeste 0 -- -- 82
2019-12-11 17:00:00 4.1 26 Noroeste 44 Noroeste 0 -- -- 80
2019-12-11 16:00:00 4.7 23 Noroeste 34 Noroeste 0 -- -- 82
2019-12-11 15:00:00 3.4 21 Noroeste 39 Noroeste 0 -- -- 97
2019-12-11 14:00:00 2.6 27 Noroeste 39 Noroeste 0 -- -- 98
2019-12-11 13:00:00 2.4 26 Noroeste 38 Noroeste 0 -- -- 98
2019-12-11 12:00:00 3 24 Noroeste 47 Oeste 0.6 -- -- 97
2019-12-11 11:00:00 3.5 29 Noroeste 50 Oeste 0.6 -- -- 96
2019-12-11 10:00:00 2.5 15 Noroeste 35 Oeste 1.4 -- -- 93
2019-12-11 09:00:00 4.1 32 Oeste 47 Oeste 0.4 -- -- 65
2019-12-11 08:00:00 5.6 17 Noroeste 31 Noroeste 0 -- -- 37
2019-12-11 07:00:00 6.1 23 Oeste 33 Oeste 0 -- -- 36
2019-12-11 06:00:00 7 14 Oeste 31 Oeste 0 -- -- 35
2019-12-11 05:00:00 6.9 23 Oeste 42 Oeste 0 -- -- 42
2019-12-11 04:00:00 6.4 27 Oeste 41 Oeste 0 -- -- 43
2019-12-11 03:00:00 5.9 18 Noroeste 27 Noroeste 0 -- -- 49
2019-12-11 02:00:00 6.6 12 Noroeste 21 Noroeste 0 -- -- 45
2019-12-11 01:00:00 5.7 18 Oeste 24 Oeste 0 -- -- 45
2019-12-11 00:00:00 5.3 13 Oeste 24 Oeste 0 -- -- 48
2019-12-10 23:00:00 4 15 Oeste 21 Noroeste 0 -- -- 62
2019-12-10 22:00:00 3.1 13 Noroeste 16 Oeste 0 -- -- 75
2019-12-10 21:00:00 3.9 6 Oeste 8 Oeste 0 -- -- 83
2019-12-10 20:00:00 3.9 0 Calma 12 Noroeste 0 -- -- 84
2019-12-10 19:00:00 4.5 3 Noroeste 9 Noroeste 0 -- -- 74
2019-12-10 18:00:00 6.2 5 Oeste 15 Noroeste 0 -- -- 60
2019-12-10 17:00:00 8 9 Noroeste 14 Noroeste 0 -- -- 55
2019-12-10 16:00:00 9.8 10 Noroeste 18 Noroeste 0 -- -- 55
2019-12-10 15:00:00 10.4 14 Noroeste 18 Noroeste 0 -- -- 50
2019-12-10 14:00:00 9.7 11 Norte 16 Noroeste 0 -- -- 49
2019-12-10 13:00:00 9.4 14 Noroeste 23 Noroeste 0 -- -- 45
2019-12-10 12:00:00 8.8 15 Noroeste 23 Oeste 0 -- -- 53
2019-12-10 11:00:00 8.1 9 Noroeste 17 Noroeste 0 -- -- 58
2019-12-10 10:00:00 6.1 4 Sudoeste 12 Sudoeste 0 -- -- 71
2019-12-10 09:00:00 0.8 0 Calma 10 Oeste 0 -- -- 94
2019-12-10 08:00:00 -0.1 6 Oeste 12 Oeste 0 -- -- 95
2019-12-10 07:00:00 0.1 11 Oeste 13 Oeste 0 -- -- 92
2019-12-10 06:00:00 0.1 9 Oeste 11 Oeste 0 -- -- 91
2019-12-10 05:00:00 1 8 Oeste 19 Oeste 0 -- -- 91
2019-12-10 04:00:00 1.1 14 Oeste 18 Oeste 0 -- -- 92
2019-12-10 03:00:00 1 13 Oeste 19 Oeste 0 -- -- 93
2019-12-10 02:00:00 1.3 11 Oeste 18 Oeste 0 -- -- 91
2019-12-10 01:00:00 1.4 13 Oeste 23 Oeste 0 -- -- 91
2019-12-10 00:00:00 1.9 17 Oeste 23 Noroeste 0 -- -- 90
2019-12-09 23:00:00 1.8 14 Oeste 26 Oeste 0 -- -- 89
2019-12-09 22:00:00 2.1 18 Oeste 22 Oeste 0 -- -- 91
2019-12-09 21:00:00 2.4 13 Noroeste 24 Noroeste 0 -- -- 88
2019-12-09 20:00:00 3.1 14 Noroeste 26 Noroeste 0 -- -- 87
2019-12-09 19:00:00 3.5 15 Noroeste 25 Noroeste 0 -- -- 84
2019-12-09 18:00:00 4.1 18 Noroeste 29 Noroeste 0 -- -- 81
2019-12-09 17:00:00 5.8 22 Noroeste 33 Noroeste 0 -- -- 71
2019-12-09 16:00:00 7.4 27 Noroeste 36 Noroeste 0 -- -- 63
2019-12-09 15:00:00 8 32 Noroeste 44 Noroeste 0 -- -- 65
2019-12-09 14:00:00 7.8 33 Noroeste 43 Noroeste 0 -- -- 67
2019-12-09 13:00:00 7.9 27 Noroeste 37 Noroeste 0 -- -- 64
2019-12-09 12:00:00 7.2 25 Noroeste 36 Noroeste 0 -- -- 72
2019-12-09 11:00:00 6.4 26 Noroeste 41 Oeste 0 -- -- 80
2019-12-09 10:00:00 5.7 31 Oeste 42 Noroeste 0 -- -- 74
2019-12-09 09:00:00 4 25 Noroeste 35 Noroeste 0 -- -- 93
2019-12-09 08:00:00 3.7 20 Noroeste 40 Oeste 0 -- -- 97
2019-12-09 07:00:00 3.4 22 Noroeste 37 Noroeste 0 -- -- 98
2019-12-09 06:00:00 4.5 26 Noroeste 45 Noroeste 0 -- -- 97
2019-12-09 05:00:00 4.7 26 Noroeste 41 Oeste 0 -- -- 98
2019-12-09 04:00:00 4.5 25 Noroeste 38 Noroeste 0 -- -- 99
2019-12-09 03:00:00 5 27 Noroeste 39 Oeste 0 -- -- 99
2019-12-09 02:00:00 4.5 19 Oeste 31 Noroeste 0 -- -- 99
2019-12-09 01:00:00 5.1 19 Noroeste 31 Oeste 0 -- -- 99
2019-12-09 00:00:00 6.3 17 Noroeste 28 Noroeste 0 -- -- 99
2019-12-08 23:00:00 6.7 18 Noroeste 26 Noroeste 0 -- -- 99
2019-12-08 22:00:00 7.2 15 Noroeste 22 Noroeste 0.2 -- -- 99
2019-12-08 21:00:00 7.3 14 Noroeste 24 Oeste 0.2 -- -- 99
2019-12-08 20:00:00 7.4 19 Noroeste 32 Oeste 0.2 -- -- 98
2019-12-08 19:00:00 7.3 21 Noroeste 33 Noroeste 0 -- -- 98
2019-12-08 18:00:00 7.1 22 Noroeste 36 Oeste 0.2 -- -- 97
2019-12-08 17:00:00 7.1 20 Noroeste 31 Oeste 0 -- -- 96
2019-12-08 16:00:00 6.8 19 Noroeste 29 Noroeste 0.6 -- -- 96
2019-12-08 15:00:00 6.3 21 Oeste 37 Oeste 0.2 -- -- 95
2019-12-08 14:00:00 7.1 20 Noroeste 37 Oeste 0 -- -- 83
2019-12-08 13:00:00 7.8 24 Noroeste 31 Noroeste 0 -- -- 78
2019-12-08 12:00:00 7.7 19 Noroeste 36 Oeste 0 -- -- 78
2019-12-08 11:00:00 6.2 17 Noroeste 28 Noroeste 0 -- -- 84
2019-12-08 10:00:00 6.1 14 Noroeste 21 Oeste 0 -- -- 85
2019-12-08 09:00:00 2.6 12 Oeste 19 Oeste 0 -- -- 92
2019-12-08 08:00:00 2.5 16 Noroeste 21 Oeste 0 -- -- 93
2019-12-08 07:00:00 1.4 3 Oeste 21 Oeste 0 -- -- 91
2019-12-08 06:00:00 2.4 12 Oeste 19 Oeste 0 -- -- 90
2019-12-08 05:00:00 1.2 11 Noroeste 13 Oeste 0 -- -- 91
2019-12-08 04:00:00 1.6 0 Calma 13 Oeste 0 -- -- 90
2019-12-08 03:00:00 1.7 4 Sudoeste 9 Sur 0 -- -- 91
2019-12-08 02:00:00 2.3 0 Calma 7 Sudoeste 0 -- -- 93
2019-12-08 01:00:00 1.6 0 Calma 8 Oeste 0 -- -- 96
2019-12-08 00:00:00 1.4 0 Calma 9 Sudoeste 0 -- -- 95
2019-12-07 23:00:00 2.9 2 Sur 5 Sur 0 -- -- 91
2019-12-07 22:00:00 3.3 6 Sudoeste 10 Sur 0 -- -- 93
2019-12-07 21:00:00 3.1 0 Calma 4 Sur 0 -- -- 95
2019-12-07 20:00:00 4.1 5 Sur 9 Oeste 0 -- -- 90
2019-12-07 19:00:00 4.6 7 Sudoeste 12 Oeste 0 -- -- 91
2019-12-07 18:00:00 5.2 4 Noroeste 10 Noroeste 0 -- -- 87
2019-12-07 17:00:00 8.8 7 Norte 13 Noroeste 0 -- -- 76
2019-12-07 16:00:00 9.7 10 Norte 14 Noroeste 0 -- -- 69
2019-12-07 15:00:00 10.3 6 Noroeste 13 Noroeste 0 -- -- 65
2019-12-07 14:00:00 9.8 9 Norte 15 Norte 0 -- -- 67
2019-12-07 13:00:00 11.3 6 Noroeste 10 Noroeste 0 -- -- 62
2019-12-07 12:00:00 9.9 5 Norte 9 Noroeste 0 -- -- 69
2019-12-07 11:00:00 9.9 2 Noroeste 7 Sudoeste 0 -- -- 70
2019-12-07 10:00:00 6.4 4 Sudoeste 8 Sudoeste 0 -- -- 81
2019-12-07 09:00:00 2.5 0 Calma 4 Sudoeste 0 -- -- 96
2019-12-07 08:00:00 0 0 Calma 4 Sur 0 -- -- 95
2019-12-07 07:00:00 0.8 0 Calma 6 Sur 0 -- -- 96
2019-12-07 06:00:00 0.8 2 Sur 16 Sur 0 -- -- 97
2019-12-07 05:00:00 1.4 7 Sudoeste 12 Sudoeste 0 -- -- 95
2019-12-07 04:00:00 1.6 3 Sudeste 12 Sudoeste 0 -- -- 96
2019-12-07 03:00:00 1.7 11 Sudoeste 13 Sudoeste 0 -- -- 95
2019-12-07 02:00:00 1.6 0 Calma 5 Sur 0 -- -- 93
2019-12-07 01:00:00 1.9 0 Calma 9 Sur 0 -- -- 97
2019-12-07 00:00:00 2 4 Sudeste 9 Sudeste 0 -- -- 93
2019-12-06 23:00:00 2.2 9 Sudoeste 12 Sudoeste 0 -- -- 92
2019-12-06 22:00:00 2.6 2 Nordeste 5 Sudeste 0 -- -- 93
2019-12-06 21:00:00 3.5 5 Sudeste 10 Sur 0 -- -- 91
2019-12-06 20:00:00 4.2 2 Sudeste 9 Sur 0 -- -- 94
2019-12-06 19:00:00 5.5 4 Sur 8 Sur 0 -- -- 87
2019-12-06 18:00:00 6.3 0 Calma 7 Norte 0 -- -- 86
2019-12-06 17:00:00 8.7 4 Norte 10 Noroeste 0 -- -- 79
2019-12-06 16:00:00 9.7 4 Norte 8 Norte 0 -- -- 73
2019-12-06 15:00:00 9.7 3 Nordeste 13 Norte 0 -- -- 74
2019-12-06 14:00:00 9.5 6 Nordeste 15 Nordeste 0 -- -- 76
2019-12-06 13:00:00 11.1 3 Norte 7 Norte 0 -- -- 65
2019-12-06 12:00:00 9.7 5 Sudeste 14 Sur 0 -- -- 69
2019-12-06 11:00:00 7.8 11 Sudeste 20 Sudeste 0 -- -- 79
2019-12-06 10:00:00 6.4 9 Sudeste 12 Sudeste 0 -- -- 83
2019-12-06 09:00:00 2.9 5 Sur 22 Sudeste 0 -- -- 92
2019-12-06 08:00:00 2.8 17 Sudeste 26 Sudeste 0 -- -- 94
2019-12-06 07:00:00 1.6 10 Sudeste 16 Sudeste 0 -- -- 91
2019-12-06 06:00:00 2.4 9 Sudeste 15 Sudeste 0 -- -- 90
2019-12-06 05:00:00 4.2 12 Sudeste 20 Sudeste 0 -- -- 89
2019-12-06 04:00:00 5.1 13 Sudeste 25 Sudeste 0 -- -- 85
2019-12-06 03:00:00 5.1 13 Sudeste 30 Sudeste 0 -- -- 85
2019-12-06 02:00:00 5.5 10 Sudeste 23 Sudeste 0 -- -- 84
2019-12-06 01:00:00 5.4 14 Sudeste 27 Sudeste 0 -- -- 86
2019-12-06 00:00:00 5.4 8 Sudeste 22 Sudeste 0 -- -- 88
2019-12-05 23:00:00 6 13 Sudeste 20 Sudeste 0 -- -- 85
2019-12-05 22:00:00 5.9 14 Sudeste 26 Sudeste 0 -- -- 86
2019-12-05 21:00:00 5.3 17 Sudeste 23 Sudeste 0 -- -- 90
2019-12-05 20:00:00 3.3 9 Sudeste 24 Sudeste 0 -- -- 90
2019-12-05 19:00:00 5 17 Sudeste 23 Sudeste 0 -- -- 89
2019-12-05 18:00:00 4.2 10 Sudeste 22 Este 0 -- -- 89
2019-12-05 17:00:00 7.3 17 Este 26 Este 0 -- -- 79
2019-12-05 16:00:00 7.7 17 Este 26 Este 0 -- -- 77
2019-12-05 15:00:00 7.9 15 Este 27 Este 0 -- -- 77
2019-12-05 14:00:00 7 15 Este 26 Este 0 -- -- 80
2019-12-05 13:00:00 7.9 16 Este 31 Este 0 -- -- 77
2019-12-05 12:00:00 6.5 18 Este 36 Este 0 -- -- 80
2019-12-05 11:00:00 5.1 17 Este 26 Este 0 -- -- 83
2019-12-05 10:00:00 5.2 9 Sudeste 14 Sudeste 0 -- -- 85
2019-12-05 09:00:00 3.3 2 Noroeste 6 Este 0 -- -- 95
2019-12-05 08:00:00 3 4 Sudeste 5 Sudeste 0 -- -- 97
2019-12-05 07:00:00 2.7 0 Calma 3 Noroeste 0 -- -- 98
2019-12-05 06:00:00 2.3 0 Calma 5 Sudeste 0 -- -- 98
2019-12-05 05:00:00 2.4 0 Calma 5 Sur 0 -- -- 98
2019-12-05 04:00:00 1.8 3 Sur 8 Sudoeste 0 -- -- 98
2019-12-05 03:00:00 1.8 3 Oeste 5 Sudoeste 0 -- -- 98
2019-12-05 02:00:00 2.3 0 Calma 5 Oeste 0 -- -- 97
2019-12-05 01:00:00 3.2 3 Noroeste 12 Oeste 0 -- -- 95
2019-12-05 00:00:00 3.5 6 Noroeste 15 Oeste 0 -- -- 93
2019-12-04 23:00:00 3.6 11 Oeste 18 Oeste 0 -- -- 95
2019-12-04 22:00:00 3.7 13 Oeste 16 Oeste 0 -- -- 95
2019-12-04 21:00:00 3.9 12 Oeste 15 Oeste 0 -- -- 94
2019-12-04 20:00:00 4.7 4 Noroeste 11 Oeste 0 -- -- 93
2019-12-04 19:00:00 5.2 0 Calma 4 Noroeste 0 -- -- 92
2019-12-04 18:00:00 6 4 Sudoeste 6 Oeste 0 -- -- 89
2019-12-04 17:00:00 6.7 4 Norte 13 Norte 0 -- -- 88
2019-12-04 16:00:00 7.1 6 Nordeste 15 Nordeste 0 -- -- 87
2019-12-04 15:00:00 7.5 12 Nordeste 21 Este 0 -- -- 83
2019-12-04 14:00:00 7.4 8 Este 16 Este 0 -- -- 82
2019-12-04 13:00:00 6.5 10 Este 28 Sudeste 0 -- -- 84
2019-12-04 12:00:00 5.8 19 Este 29 Este 0 -- -- 85
2019-12-04 11:00:00 5.1 12 Sudeste 18 Sudeste 0 -- -- 90
2019-12-04 10:00:00 4.1 8 Sudeste 14 Sudeste 0 -- -- 93
2019-12-04 09:00:00 3.6 10 Sudeste 15 Sudeste 0 -- -- 94
2019-12-04 08:00:00 3.4 11 Sudeste 31 Sudeste 0 -- -- 95
2019-12-04 07:00:00 2.7 21 Sudeste 28 Sudeste 0.2 -- -- 98
2019-12-04 06:00:00 1.8 14 Sudeste 31 Sudeste 0 -- -- 96
2019-12-04 05:00:00 2.6 13 Sudeste 18 Sudeste 0 -- -- 96
2019-12-04 04:00:00 1.1 6 Sudeste 15 Sur 0.2 -- -- 95
2019-12-04 03:00:00 2.2 14 Sudeste 24 Sudeste 1.6 -- -- 95
2019-12-04 02:00:00 0.7 16 Sudeste 28 Sudeste 0 -- -- 92
2019-12-04 01:00:00 0.5 16 Sudeste 26 Sudeste 0 -- -- 91
2019-12-04 00:00:00 0.8 19 Sudeste 28 Sudeste 0 -- -- 90
2019-12-03 23:00:00 0.4 14 Sudeste 32 Sudeste 0 -- -- 92
2019-12-03 22:00:00 -0.4 8 Sudeste 21 Sudeste 0 -- -- 95
2019-12-03 21:00:00 -0.9 8 Sudeste 19 Sudeste 0 -- -- 95
2019-12-03 20:00:00 -0.5 9 Sudeste 23 Sudeste 0 -- -- 93
2019-12-03 19:00:00 -0.2 19 Sudeste 29 Sudeste 0 -- -- 95
2019-12-03 18:00:00 0.3 20 Sudeste 30 Sudeste 0 -- -- 93
2019-12-03 17:00:00 0.5 20 Sudeste 30 Sudeste 0 -- -- 92
2019-12-03 16:00:00 0.5 23 Sudeste 35 Sudeste 0 -- -- 90
2019-12-03 15:00:00 3.7 20 Sudeste 28 Sudeste 0 -- -- 76
2019-12-03 14:00:00 4.2 16 Sudeste 24 Sudeste 0 -- -- 70
2019-12-03 13:00:00 4 18 Sudeste 26 Sudeste 0 -- -- 70
2019-12-03 12:00:00 3.6 18 Sudeste 28 Sudeste 0 -- -- 70
2019-12-03 11:00:00 1.6 20 Sudeste 26 Sudeste 0 -- -- 77
2019-12-03 10:00:00 0.6 14 Sudeste 22 Sudeste 0 -- -- 80
2019-12-03 09:00:00 -2.6 9 Sudeste 14 Sudeste 0 -- -- 90
2019-12-03 08:00:00 -4.6 9 Sudeste 14 Sudeste 0 -- -- 93
2019-12-03 07:00:00 -4.7 8 Sudeste 12 Sudeste 0 -- -- 93
2019-12-03 06:00:00 -3.8 3 Sudeste 11 Sudeste 0 -- -- 93
2019-12-03 05:00:00 -2.8 10 Sudeste 14 Sudeste 0 -- -- 90
2019-12-03 04:00:00 -3.6 8 Sudeste 14 Sudeste 0 -- -- 90
2019-12-03 03:00:00 -3.3 9 Sudeste 13 Sudeste 0 -- -- 90
2019-12-03 02:00:00 -2 11 Sudeste 15 Sudeste 0 -- -- 92
2019-12-03 01:00:00 -1.8 13 Sudeste 15 Sudeste 0 -- -- 94
2019-12-03 00:00:00 -1.8 10 Sudeste 16 Sudeste 0 -- -- 94
2019-12-02 23:00:00 0.2 17 Sudeste 22 Sudeste 0 -- -- 88
2019-12-02 22:00:00 0.1 12 Sudeste 19 Sudeste 0 -- -- 90
2019-12-02 21:00:00 1 14 Sudeste 18 Sudeste 0 -- -- 89
2019-12-02 20:00:00 1.4 15 Sudeste 26 Sudeste 0 -- -- 86
2019-12-02 19:00:00 2 11 Sudeste 21 Sudeste 0 -- -- 83
2019-12-02 18:00:00 3.3 13 Sudeste 32 Sudeste 0 -- -- 79
2019-12-02 17:00:00 5.2 23 Sudeste 42 Este 0 -- -- 71
2019-12-02 16:00:00 5.7 28 Sudeste 57 Este 0 -- -- 70
2019-12-02 15:00:00 6.2 23 Este 37 Sudeste 0 -- -- 67
2019-12-02 14:00:00 6.6 25 Este 42 Este 0 -- -- 68
2019-12-02 13:00:00 6 30 Este 42 Este 0 -- -- 68
2019-12-02 12:00:00 5.3 24 Este 40 Sudeste 0 -- -- 73
2019-12-02 11:00:00 5.2 19 Este 33 Sudeste 0 -- -- 74
2019-12-02 10:00:00 4.1 14 Sudeste 21 Sudeste 0 -- -- 80
2019-12-02 09:00:00 1.2 8 Sudeste 14 Sudeste 0 -- -- 92
2019-12-02 08:00:00 -0.2 9 Sudeste 17 Este 0 -- -- 93
2019-12-02 07:00:00 1.9 14 Este 22 Este 0 -- -- 87
2019-12-02 06:00:00 2.1 10 Este 23 Este 0 -- -- 87
2019-12-02 05:00:00 2.8 16 Este 27 Sudeste 0 -- -- 85
2019-12-02 04:00:00 1.3 10 Sudeste 15 Sudeste 0 -- -- 93
2019-12-02 03:00:00 1 11 Sudeste 14 Sudeste 0 -- -- 93
2019-12-02 02:00:00 0.8 7 Sudeste 18 Este 0 -- -- 92
2019-12-02 01:00:00 3.4 12 Sudeste 22 Este 0 -- -- 87
2019-12-02 00:00:00 3.9 20 Este 32 Este 0 -- -- 85
2019-12-01 23:00:00 3.5 10 Este 25 Este 0 -- -- 88
2019-12-01 22:00:00 4 11 Este 21 Este 0 -- -- 87
2019-12-01 21:00:00 3.7 9 Este 19 Este 0 -- -- 94
2019-12-01 20:00:00 4 3 Este 5 Este 0 -- -- 94
2019-12-01 19:00:00 4.1 2 Nordeste 4 Nordeste 0 -- -- 95
2019-12-01 18:00:00 4.1 2 Oeste 2 Noroeste 0 -- -- 94
2019-12-01 17:00:00 5 0 Calma 6 Noroeste 0.2 -- -- 93
2019-12-01 16:00:00 5.1 6 Oeste 17 Oeste 0 -- -- 93
2019-12-01 15:00:00 5 14 Oeste 18 Oeste 0 -- -- 91
2019-12-01 14:00:00 7.8 6 Sudoeste 19 Sur 0 -- -- 68
2019-12-01 13:00:00 7.2 8 Sur 18 Sur 0 -- -- 75
2019-12-01 12:00:00 5.8 12 Sur 24 Sur 0 -- -- 78
2019-12-01 11:00:00 4.9 8 Sur -- -- -- -- -- 79
2019-12-01 10:00:00 5.6 8 Sudeste 16 Sudeste 0 -- -- 73
2019-12-01 09:00:00 2 8 Sudeste 11 Sudeste 0 -- -- 88
2019-12-01 08:00:00 1.8 8 Sur 13 Sur 0 -- -- 85
2019-12-01 07:00:00 1.6 6 Sudeste 12 Sudeste 0 -- -- 86
2019-12-01 06:00:00 1.3 7 Sur 15 Sur 0 -- -- 87
2019-12-01 05:00:00 2.2 8 Sudoeste 15 Oeste 0 -- -- 84
2019-12-01 04:00:00 2.2 3 Sur 17 Oeste 0 -- -- 89
2019-12-01 03:00:00 2.7 10 Oeste 17 Oeste 0 -- -- 90
2019-12-01 02:00:00 3 6 Oeste 22 Oeste 0 -- -- 88
2019-12-01 01:00:00 3.5 10 Oeste 24 Oeste 0 -- -- 87
2019-12-01 00:00:00 3.9 21 Oeste 33 Oeste 0 -- -- 85
2019-11-30 23:00:00 3.8 21 Oeste 35 Oeste 0 -- -- 81
2019-11-30 22:00:00 3.8 17 Oeste 50 Oeste 0.2 -- -- 83
2019-11-30 21:00:00 3.7 32 Oeste 54 Oeste 0.2 -- -- 86
2019-11-30 20:00:00 4.5 30 Oeste 49 Oeste 1.2 -- -- 95
2019-11-30 19:00:00 5.4 23 Oeste 44 Oeste 2.4 -- -- 97
2019-11-30 18:00:00 6.3 22 Noroeste 41 Oeste 4.6 -- -- 97
2019-11-30 17:00:00 8 30 Noroeste 61 Oeste 1.6 -- -- 94
2019-11-30 16:00:00 11.4 14 Oeste 33 Sur 0.2 -- -- 83
2019-11-30 15:00:00 10.3 17 Sur 37 Sur 0 -- -- 87
2019-11-30 14:00:00 10.1 18 Sur 40 Sur 0 -- -- 88
2019-11-30 13:00:00 10.9 23 Sur 39 Sur 0 -- -- 83
2019-11-30 12:00:00 11 16 Sur 34 Sur 0 -- -- 82
2019-11-30 11:00:00 11.8 17 Sudoeste 28 Sudoeste 0 -- -- 77
2019-11-30 10:00:00 12.3 21 Sudoeste 40 Sudoeste 0 -- -- 73
2019-11-30 09:00:00 10.7 12 Sudoeste 21 Sudoeste 0 -- -- 78
2019-11-30 08:00:00 9 18 Oeste 30 Oeste 0 -- -- 92
2019-11-30 07:00:00 9.6 19 Oeste 31 Oeste 0 -- -- 91
2019-11-30 06:00:00 9.6 3 Sudoeste 15 Oeste 0 -- -- 91
2019-11-30 05:00:00 9.4 9 Oeste 19 Oeste 0 -- -- 92
2019-11-30 04:00:00 9.1 6 Oeste 13 Sur 0 -- -- 92
2019-11-30 03:00:00 8.3 9 Sur 19 Sudoeste 0.4 -- -- 94
2019-11-30 02:00:00 8.4 9 Sur 14 Sudoeste 0.2 -- -- 90
2019-11-30 01:00:00 7.7 8 Sur 10 Sur 0.2 -- -- 91
2019-11-30 00:00:00 7 5 Sudeste 12 Sudoeste 0 -- -- 93
2019-11-29 23:00:00 6.8 8 Sur 12 Sudoeste 0 -- -- 92
2019-11-29 22:00:00 6.5 9 Sur 12 Sudoeste 0 -- -- 94
2019-11-29 21:00:00 8.5 12 Oeste 20 Oeste 0 -- -- 94
2019-11-29 20:00:00 9.5 14 Oeste 23 Oeste 0 -- -- 93
2019-11-29 19:00:00 9.5 9 Oeste 14 Oeste 0 -- -- 94
2019-11-29 18:00:00 9.4 10 Oeste 17 Noroeste 0 -- -- 92
2019-11-29 17:00:00 10.6 10 Noroeste 24 Oeste 0 -- -- 89
2019-11-29 16:00:00 10.9 19 Noroeste 28 Noroeste 0 -- -- 85
2019-11-29 15:00:00 10.5 16 Noroeste 27 Noroeste 0 -- -- 95
2019-11-29 14:00:00 10.3 13 Noroeste 32 Oeste 0.2 -- -- 96
2019-11-29 13:00:00 11.5 21 Noroeste 28 Oeste 0 -- -- 87
2019-11-29 12:00:00 10.8 18 Noroeste 31 Oeste 0 -- -- 95
2019-11-29 11:00:00 10 22 Oeste 33 Oeste 0 -- -- 98
2019-11-29 10:00:00 9.5 23 Oeste 36 Oeste 0 -- -- 98
2019-11-29 09:00:00 9.2 17 Oeste 27 Oeste 0 -- -- 98
2019-11-29 08:00:00 9 12 Oeste 32 Oeste 0.2 -- -- 98
2019-11-29 07:00:00 9 20 Oeste 31 Oeste 0.2 -- -- 98
2019-11-29 06:00:00 8.8 17 Oeste 34 Oeste 0.2 -- -- 98
2019-11-29 05:00:00 8.7 18 Oeste 28 Oeste 1 -- -- 98
2019-11-29 04:00:00 8.6 16 Oeste 29 Oeste 0.2 -- -- 97
2019-11-29 03:00:00 8.5 21 Oeste 32 Oeste 0.4 -- -- 97
2019-11-29 02:00:00 8.3 21 Oeste 36 Oeste 0.2 -- -- 96
2019-11-29 01:00:00 8.4 20 Oeste 40 Oeste 0 -- -- 93
2019-11-29 00:00:00 8.7 28 Oeste 49 Oeste 0 -- -- 89
2019-11-28 23:00:00 9.5 28 Oeste 49 Oeste 0 -- -- 79
2019-11-28 22:00:00 9.8 30 Oeste 52 Oeste 0 -- -- 75
2019-11-28 21:00:00 9.8 31 Oeste 51 Oeste 0 -- -- 75
2019-11-28 20:00:00 9.7 28 Oeste 48 Oeste 0 -- -- 76
2019-11-28 19:00:00 9.2 24 Oeste 40 Oeste 0 -- -- 79
2019-11-28 18:00:00 9.1 16 Oeste 30 Oeste 0 -- -- 77
2019-11-28 17:00:00 9.5 23 Oeste 39 Oeste 0 -- -- 75
2019-11-28 16:00:00 10 30 Oeste 60 Oeste 0 -- -- 72
2019-11-28 15:00:00 10.3 28 Oeste 49 Oeste 0 -- -- 71
2019-11-28 14:00:00 9.8 20 Oeste 49 Oeste 0 -- -- 79
2019-11-28 13:00:00 10.9 29 Oeste 48 Oeste 0 -- -- 69
2019-11-28 12:00:00 9.8 28 Oeste 42 Oeste 0 -- -- 77
2019-11-28 11:00:00 8.8 21 Oeste 33 Oeste 0 -- -- 82
2019-11-28 10:00:00 8.3 25 Oeste 39 Oeste 0 -- -- 86
2019-11-28 09:00:00 7.6 18 Oeste 40 Oeste 0 -- -- 91
2019-11-28 08:00:00 6.9 24 Oeste 45 Oeste 0 -- -- 91
2019-11-28 07:00:00 6.7 24 Oeste 44 Oeste 0 -- -- 90
2019-11-28 06:00:00 6.8 28 Oeste 48 Oeste 0 -- -- 89
2019-11-28 05:00:00 6.6 29 Oeste 47 Oeste 0 -- -- 90
2019-11-28 04:00:00 7.1 32 Oeste 50 Oeste 0 -- -- 87
2019-11-28 03:00:00 6.9 27 Oeste 50 Oeste 0 -- -- 87
2019-11-28 02:00:00 6.7 24 Oeste 49 Oeste 0 -- -- 88
2019-11-28 01:00:00 7 29 Oeste 50 Oeste 0 -- -- 85
2019-11-28 00:00:00 7.2 30 Oeste 53 Oeste 0 -- -- 85
2019-11-27 23:00:00 7.2 28 Oeste 45 Noroeste 0 -- -- 85
2019-11-27 22:00:00 7.4 31 Oeste 50 Oeste 0 -- -- 82
2019-11-27 21:00:00 7.4 32 Oeste 46 Oeste 0 -- -- 79
2019-11-27 20:00:00 7.3 25 Oeste 45 Oeste 0 -- -- 79
2019-11-27 19:00:00 7.6 27 Oeste 44 Oeste 0 -- -- 79
2019-11-27 18:00:00 7.5 21 Oeste 40 Oeste 0 -- -- 81
2019-11-27 17:00:00 7.8 29 Oeste 46 Oeste 0 -- -- 78
2019-11-27 16:00:00 8.5 21 Oeste 43 Oeste 0 -- -- 71
2019-11-27 15:00:00 8.6 26 Oeste 47 Oeste 0 -- -- 70
2019-11-27 14:00:00 8.4 32 Oeste 48 Oeste 0 -- -- 74
2019-11-27 06:00:00 -- -- -- -- -- -- -- -- --
2019-11-27 05:00:00 -- -- -- -- -- -- -- -- --
2019-11-27 04:00:00 -- -- -- -- -- -- -- -- --
2019-11-27 03:00:00 7.5 34 Oeste 55 Oeste 0 -- -- 86
2019-11-27 02:00:00 8.1 31 Oeste 62 Oeste 0 -- -- 86
2019-11-27 01:00:00 8.8 34 Oeste 62 Oeste 0 -- -- 86
2019-11-27 00:00:00 9.6 36 Oeste 67 Oeste 0 -- -- 80
2019-11-26 23:00:00 10.5 33 Oeste 56 Oeste 0 -- -- 77
2019-11-26 22:00:00 10.2 21 Oeste 34 Oeste 0.2 -- -- 87
2019-11-26 21:00:00 9.8 9 Sudoeste 30 Sudoeste 0.4 -- -- 91
2019-11-26 20:00:00 10.3 19 Sudoeste 42 Sudoeste 0 -- -- 86
2019-11-26 19:00:00 10.9 21 Sur 44 Sudoeste 0 -- -- 81
2019-11-26 18:00:00 10.6 21 Sudoeste 42 Sudoeste 0 -- -- 82
2019-11-26 17:00:00 10 26 Sur 46 Sur 0 -- -- 84
2019-11-26 16:00:00 10.6 28 Sudoeste 52 Sudoeste 0 -- -- 82
2019-11-26 15:00:00 11.2 26 Sur 44 Sudoeste 0 -- -- 79
2019-11-26 14:00:00 10.7 24 Sudoeste 40 Sudoeste 0 -- -- 79
2019-11-26 13:00:00 13.5 12 Sudoeste 24 Oeste 0 -- -- 72
2019-11-26 12:00:00 12.6 8 Oeste 17 Noroeste 0.4 -- -- 88
2019-11-26 11:00:00 14.4 13 Oeste 23 Oeste 0 -- -- 75
2019-11-26 10:00:00 10.8 4 Sudeste 22 Oeste 0 -- -- 88
2019-11-26 09:00:00 9 3 Oeste 14 Oeste 0 -- -- 93
2019-11-26 08:00:00 8.3 8 Oeste 19 Oeste 0 -- -- 92
2019-11-26 07:00:00 6.7 0 Calma 10 Sudeste 0 -- -- 84
2019-11-26 06:00:00 6.7 5 Sur 13 Sur 0 -- -- 75
2019-11-26 05:00:00 6 7 Sudoeste 18 Sur 0 -- -- 85
2019-11-26 04:00:00 7.3 9 Noroeste 23 Oeste 0 -- -- 87
2019-11-26 03:00:00 7.8 9 Oeste 28 Oeste -- -- -- 83
2019-11-26 02:00:00 7.4 12 Oeste 34 Oeste 0 -- -- 86
2019-11-26 01:00:00 8.3 22 Oeste 42 Oeste 0 -- -- 84
2019-11-26 00:00:00 8 29 Oeste 42 Oeste 0 -- -- 87
2019-11-25 23:00:00 7.7 29 Oeste 41 Oeste 0 -- -- 91
2019-11-25 22:00:00 8 29 Noroeste 40 Oeste 0 -- -- 91
2019-11-25 21:00:00 7.9 24 Noroeste 36 Oeste 0 -- -- 91
2019-11-25 20:00:00 8.4 24 Noroeste 35 Oeste 0 -- -- 90
2019-11-25 19:00:00 8.3 18 Noroeste 25 Oeste 0 -- -- 89
2019-11-25 18:00:00 8.5 16 Noroeste 28 Noroeste 0 -- -- 84
2019-11-25 17:00:00 9.3 26 Noroeste 41 Oeste 0 -- -- 79
2019-11-25 16:00:00 10.2 27 Oeste 46 Oeste 0 -- -- 76
2019-11-25 15:00:00 10.6 26 Noroeste 46 Oeste 0 -- -- 84
2019-11-25 14:00:00 10.7 30 Noroeste 46 Oeste 0 -- -- 83
2019-11-25 13:00:00 10.4 27 Noroeste 45 Oeste 0 -- -- 86
2019-11-25 12:00:00 9.4 32 Oeste 49 Oeste 0 -- -- 89
2019-11-25 11:00:00 9.4 32 Oeste 50 Oeste 0 -- -- 88
2019-11-25 10:00:00 8.7 31 Oeste 46 Oeste 0 -- -- 91
2019-11-25 09:00:00 7.9 24 Noroeste 46 Oeste 0 -- -- 93
2019-11-25 08:00:00 7.5 30 Oeste 43 Oeste 0 -- -- 94
2019-11-25 07:00:00 7.9 31 Oeste 50 Oeste 0 -- -- 95
2019-11-25 06:00:00 8 36 Oeste 53 Oeste 0 -- -- 95
2019-11-25 05:00:00 8.3 38 Oeste 55 Oeste 0.2 -- -- 95
2019-11-25 04:00:00 8.8 37 Oeste 61 Noroeste 0 -- -- 95
2019-11-25 03:00:00 8.8 28 Oeste 44 Oeste 0.2 -- -- 98
2019-11-25 02:00:00 8.6 25 Noroeste 45 Oeste 0 -- -- 95
2019-11-25 01:00:00 8.5 22 Oeste 47 Oeste 0.4 -- -- 93
2019-11-25 00:00:00 8.9 25 Oeste 41 Oeste 0 -- -- 85
2019-11-24 23:00:00 7.6 20 Oeste 39 Oeste 0 -- -- 90
2019-11-24 22:00:00 7 25 Oeste 37 Oeste 0 -- -- 90
2019-11-24 21:00:00 6.3 19 Oeste 30 Oeste 0 -- -- 87
2019-11-24 20:00:00 4.5 19 Noroeste 37 Oeste 0 -- -- 91
2019-11-24 19:00:00 4.9 18 Oeste 30 Noroeste 0 -- -- 83
2019-11-24 18:00:00 4.7 17 Oeste 35 Oeste 0 -- -- 82
2019-11-24 17:00:00 5.3 26 Oeste 43 Oeste 0 -- -- 78
2019-11-24 16:00:00 6.1 27 Oeste 37 Oeste 0 -- -- 73
2019-11-24 15:00:00 5.9 24 Oeste 35 Oeste 0 -- -- 71
2019-11-24 14:00:00 5.5 20 Oeste 33 Noroeste 0 -- -- 71
2019-11-24 13:00:00 5.4 19 Oeste 33 Oeste 0 -- -- 74
2019-11-24 12:00:00 4.3 24 Oeste 40 Oeste 0 -- -- 79
2019-11-24 11:00:00 3.6 17 Oeste 29 Oeste 0 -- -- 84
2019-11-24 10:00:00 2.4 15 Oeste 33 Oeste 0 -- -- 91
2019-11-24 09:00:00 2 19 Noroeste 35 Noroeste 0 -- -- 94
2019-11-24 08:00:00 1.8 26 Noroeste 36 Oeste 0 -- -- 94
2019-11-24 07:00:00 1.9 22 Noroeste 37 Oeste 0 -- -- 94
2019-11-24 06:00:00 2.1 23 Noroeste 40 Noroeste 0 -- -- 95
2019-11-24 05:00:00 2.1 27 Noroeste 42 Noroeste 0 -- -- 95
2019-11-24 04:00:00 2 29 Noroeste 40 Noroeste 0 -- -- 95
2019-11-24 03:00:00 2 28 Noroeste 45 Noroeste 0 -- -- 95
2019-11-24 02:00:00 2.1 25 Noroeste 42 Oeste 0 -- -- 95
2019-11-24 01:00:00 2.7 31 Oeste 42 Noroeste 0 -- -- 92
2019-11-24 00:00:00 3.2 30 Oeste 45 Oeste 0 -- -- 89
2019-11-23 23:00:00 3.6 33 Oeste 45 Oeste 0 -- -- 87
2019-11-23 22:00:00 4.2 31 Oeste 45 Oeste 0 -- -- 85
2019-11-23 21:00:00 4.5 26 Noroeste 40 Oeste 0 -- -- 86
2019-11-23 20:00:00 4.4 23 Noroeste 36 Noroeste 0 -- -- 79
2019-11-23 19:00:00 4.4 23 Noroeste 37 Noroeste 0 -- -- 78
2019-11-23 18:00:00 4.8 19 Noroeste 44 Noroeste 0 -- -- 77
2019-11-23 17:00:00 5.6 25 Noroeste 48 Noroeste 0 -- -- 74
2019-11-23 16:00:00 5.8 33 Noroeste 53 Noroeste 0 -- -- 73
2019-11-23 15:00:00 6.4 40 Noroeste 59 Noroeste 0 -- -- 69
2019-11-23 14:00:00 5.8 35 Noroeste 58 Noroeste 0 -- -- 73
2019-11-23 13:00:00 4.6 40 Noroeste 60 Noroeste 0 -- -- 81
2019-11-23 12:00:00 4.3 43 Noroeste 74 Noroeste 0 -- -- 82
2019-11-23 11:00:00 3.5 40 Noroeste 67 Noroeste 0 -- -- 84
2019-11-23 10:00:00 2.1 38 Noroeste 64 Noroeste 0 -- -- 90
2019-11-23 09:00:00 2.1 40 Noroeste 66 Oeste 0 -- -- 91
2019-11-23 08:00:00 2.5 41 Noroeste 67 Oeste 0 -- -- 91
2019-11-23 07:00:00 2.7 46 Oeste 68 Oeste 0 -- -- 92
2019-11-23 06:00:00 2.6 43 Noroeste 59 Noroeste 1 -- -- 96
2019-11-23 05:00:00 1.8 41 Oeste 62 Oeste 1 -- -- 96
2019-11-23 04:00:00 2.7 42 Oeste 88 Oeste 0 -- -- 94
2019-11-23 03:00:00 3.4 45 Oeste 68 Oeste 0.2 -- -- 90
2019-11-23 02:00:00 3.8 36 Oeste 58 Oeste 0 -- -- 90
2019-11-23 01:00:00 4.4 29 Oeste 62 Oeste 0.2 -- -- 90
2019-11-23 00:00:00 5 32 Oeste 59 Oeste 0 -- -- 89
2019-11-22 23:00:00 6 34 Oeste 53 Oeste 0 -- -- 83
2019-11-22 22:00:00 6.2 31 Oeste 60 Oeste 0 -- -- 80
2019-11-22 21:00:00 5.8 30 Oeste 46 Oeste 0.2 -- -- 88
2019-11-22 20:00:00 5.7 22 Oeste 62 Oeste 0 -- -- 90
2019-11-22 19:00:00 5.9 25 Oeste 57 Oeste 2.2 -- -- 91
2019-11-22 18:00:00 8.5 20 Sur 38 Sudoeste 0 -- -- 81
2019-11-22 17:00:00 9.2 24 Sur 47 Sur 0 -- -- 79
2019-11-22 16:00:00 9.3 27 Sur 53 Sur 0 -- -- 80
2019-11-22 15:00:00 7.6 25 Sur 57 Sudoeste 0.6 -- -- 89
2019-11-22 14:00:00 7 26 Sudoeste 72 Sur 0.6 -- -- 86
2019-11-22 13:00:00 8.2 37 Sur 66 Sur 0 -- -- 80
2019-11-22 12:00:00 7.9 38 Sur 79 Sudoeste 0 -- -- 81
2019-11-22 11:00:00 7.2 40 Sudoeste 69 Sudoeste 0 -- -- 80
2019-11-22 10:00:00 5.6 31 Sudoeste 53 Sudoeste 0.4 -- -- 84
2019-11-22 09:00:00 5.1 26 Sudoeste 42 Sudoeste 0.4 -- -- 85
2019-11-22 08:00:00 5.6 23 Sudoeste 41 Sur 0 -- -- 84
2019-11-22 07:00:00 5.1 21 Sur 33 Sur 0 -- -- 86
2019-11-22 06:00:00 4.7 17 Sur 36 Sur 0 -- -- 87
2019-11-22 05:00:00 4.4 13 Sur 28 Sur 0 -- -- 87
2019-11-22 04:00:00 4.5 13 Sur 29 Sudoeste 0 -- -- 85
2019-11-22 03:00:00 4.2 17 Sur 32 Sur 0 -- -- 87
2019-11-22 02:00:00 4.1 16 Sur 29 Sur 0 -- -- 85
2019-11-22 01:00:00 3.6 8 Sur 21 Sur 0 -- -- 87
2019-11-22 00:00:00 3.6 13 Sur 22 Sur 0 -- -- 86
2019-11-21 23:00:00 3 10 Sur 14 Sur 0 -- -- 90
2019-11-21 22:00:00 2.4 6 Sur 8 Sur 0 -- -- 94
2019-11-21 21:00:00 3.1 5 Sur 11 Sudoeste 0 -- -- 88
2019-11-21 20:00:00 3.8 6 Sudoeste 18 Oeste 0 -- -- 88
2019-11-21 19:00:00 2.9 3 Sudoeste 12 Oeste 0 -- -- 91
2019-11-21 18:00:00 3.9 8 Oeste 26 Sudoeste 0 -- -- 89
2019-11-21 17:00:00 4.4 16 Oeste 27 Oeste 0.4 -- -- 90
2019-11-21 16:00:00 4.5 9 Oeste 39 Oeste 1 -- -- 91
2019-11-21 15:00:00 6.2 19 Oeste 36 Oeste 0.4 -- -- 78
2019-11-21 14:00:00 6.7 19 Oeste 37 Oeste 0 -- -- 74
2019-11-21 13:00:00 7.3 22 Oeste 39 Oeste 0 -- -- 74
2019-11-21 12:00:00 6.4 19 Oeste 32 Oeste 0.2 -- -- 88
2019-11-21 11:00:00 4.8 8 Sudoeste 15 Sur 0 -- -- 85
2019-11-21 10:00:00 4.1 4 Sudoeste 15 Sudoeste 0 -- -- 83
2019-11-21 09:00:00 3.3 7 Oeste 19 Oeste 0 -- -- 86
2019-11-21 08:00:00 -- -- -- -- -- -- -- -- --
2019-11-21 07:00:00 -- -- -- -- -- -- -- -- --
2019-11-21 06:00:00 -- -- -- -- -- -- -- -- --
2019-11-21 05:00:00 -- -- -- -- -- -- -- -- --
2019-11-21 04:00:00 -- -- -- -- -- -- -- -- --
2019-11-21 03:00:00 -- -- -- -- -- -- -- -- --
2019-11-21 02:00:00 -- -- -- -- -- -- -- -- --
2019-11-21 01:00:00 -- -- -- -- -- -- -- -- --
2019-11-21 00:00:00 -- -- -- -- -- -- -- -- --
2019-11-20 23:00:00 -- -- -- -- -- -- -- -- --
2019-11-20 22:00:00 -- -- -- -- -- -- -- -- --
2019-11-20 21:00:00 -- -- -- -- -- -- -- -- --
2019-11-20 20:00:00 -- -- -- -- -- -- -- -- --
2019-11-20 19:00:00 3.1 11 Sudoeste 25 Sudoeste 0.6 -- -- 86
2019-11-20 18:00:00 3.7 9 Sudoeste 23 Sudoeste 0 -- -- 82
2019-11-20 17:00:00 4.5 10 Sudoeste 25 Sudoeste 0 -- -- 77
2019-11-20 16:00:00 5.1 19 Sudoeste 36 Sudoeste 0 -- -- 74
2019-11-20 15:00:00 5.8 14 Sur 23 Sur 0 -- -- 73
2019-11-20 14:00:00 7.4 7 Norte 16 Norte 0 -- -- 67
2019-11-20 13:00:00 8.1 6 Oeste 22 Sur 0 -- -- 65
2019-11-20 12:00:00 7.2 13 Sur 23 Sur 0 -- -- 64
2019-11-20 11:00:00 5.2 16 Sur 22 Sur 0 -- -- 68
2019-11-20 10:00:00 5 12 Sur 19 Sur 0 -- -- 72
2019-11-20 09:00:00 2.1 13 Sur 17 Sur 0 -- -- 78
2019-11-20 08:00:00 -0.1 4 Sudeste 10 Sudeste 0 -- -- 86
2019-11-20 07:00:00 0.3 5 Sudeste 10 Sudeste 0 -- -- 88
2019-11-20 06:00:00 0.2 6 Sudeste 11 Sur 0 -- -- 88
2019-11-20 05:00:00 0.7 7 Sur 13 Sur 0 -- -- 85
2019-11-20 04:00:00 0.1 5 Sur 12 Sur 0 -- -- 87
2019-11-20 03:00:00 0.2 9 Sur 13 Sur 0 -- -- 86
2019-11-20 02:00:00 -0.3 7 Sur 10 Sur 0 -- -- 85
2019-11-20 01:00:00 -0.2 6 Sur 8 Sur 0 -- -- 87
2019-11-20 00:00:00 -0.3 5 Sudeste 10 Sudeste 0 -- -- 90
2019-11-19 23:00:00 -1.1 8 Sudeste 10 Sudeste 0 -- -- 91
2019-11-19 22:00:00 0.1 6 Sudeste 8 Sudeste 0 -- -- 90
2019-11-19 21:00:00 0.3 6 Sur 9 Sur 0 -- -- 91
2019-11-19 20:00:00 1.2 0 Calma 6 Oeste 0 -- -- 89
2019-11-19 19:00:00 1.6 5 Noroeste 7 Noroeste 0 -- -- 86
2019-11-19 18:00:00 3 7 Noroeste 16 Noroeste 0 -- -- 83
2019-11-19 17:00:00 5.2 13 Noroeste 20 Noroeste 0 -- -- 70
2019-11-19 16:00:00 6 12 Noroeste 24 Noroeste 0 -- -- 67
2019-11-19 15:00:00 6.4 16 Noroeste 26 Noroeste 0 -- -- 68
2019-11-19 14:00:00 6.5 17 Noroeste 29 Noroeste 0 -- -- 65
2019-11-19 13:00:00 6.8 18 Noroeste 29 Oeste 0 -- -- 67
2019-11-19 12:00:00 6 19 Noroeste 30 Oeste 0 -- -- 72
2019-11-19 11:00:00 4.9 19 Noroeste 28 Noroeste 0 -- -- 79
2019-11-19 10:00:00 2.9 15 Noroeste 21 Oeste 0 -- -- 83
2019-11-19 09:00:00 1 9 Noroeste 14 Noroeste 0 -- -- 88
2019-11-19 08:00:00 0.2 11 Noroeste 17 Noroeste 0 -- -- 89
2019-11-19 07:00:00 -0.4 10 Oeste 18 Oeste 0 -- -- 89
2019-11-19 06:00:00 -0.4 15 Oeste 18 Oeste 0 -- -- 89
2019-11-19 05:00:00 -0.7 13 Oeste 16 Oeste 0 -- -- 91
2019-11-19 04:00:00 -0.9 12 Oeste 17 Oeste 0 -- -- 93
2019-11-19 03:00:00 -1.1 10 Oeste 17 Noroeste 0 -- -- 93
2019-11-19 02:00:00 -0.4 9 Noroeste 15 Noroeste 0 -- -- 92
2019-11-19 01:00:00 0.3 12 Noroeste 23 Noroeste 0 -- -- 91
2019-11-19 00:00:00 1.1 16 Noroeste 22 Noroeste 0 -- -- 90
2019-11-18 23:00:00 1.2 16 Noroeste 23 Noroeste 0 -- -- 93
2019-11-18 22:00:00 0.6 18 Noroeste 23 Oeste 0 -- -- 94
2019-11-18 21:00:00 1 11 Noroeste 24 Noroeste 0 -- -- 91
2019-11-18 20:00:00 1.3 14 Noroeste 24 Noroeste 0 -- -- 91
2019-11-18 19:00:00 2.3 14 Noroeste 25 Noroeste 0 -- -- 87
2019-11-18 18:00:00 2.9 17 Noroeste 27 Noroeste 0 -- -- 84
2019-11-18 17:00:00 3.2 21 Noroeste 36 Noroeste 0 -- -- 83
2019-11-18 16:00:00 3.6 23 Noroeste 46 Noroeste 0 -- -- 82
2019-11-18 15:00:00 3.4 24 Norte 34 Noroeste 0 -- -- 82
2019-11-18 14:00:00 3.6 28 Noroeste 38 Norte 0 -- -- 79
2019-11-18 13:00:00 3.2 23 Noroeste 39 Noroeste 0 -- -- 89
2019-11-18 12:00:00 2.8 27 Noroeste 41 Noroeste 0 -- -- 91
2019-11-18 11:00:00 1.7 12 Noroeste 28 Noroeste 0 -- -- 94
2019-11-18 10:00:00 1.4 16 Noroeste 26 Noroeste 0 -- -- 96
2019-11-18 09:00:00 0.3 17 Noroeste 27 Noroeste 0 -- -- 97
2019-11-18 08:00:00 0.1 19 Noroeste 30 Noroeste 0 -- -- 98
2019-11-18 07:00:00 -0.2 15 Noroeste 24 Noroeste 0 -- -- 97
2019-11-18 06:00:00 0.2 13 Noroeste 26 Noroeste 0 -- -- 97
2019-11-18 05:00:00 0.4 17 Noroeste 33 Noroeste 0 -- -- 97
2019-11-18 04:00:00 1.1 22 Noroeste 31 Noroeste 0 -- -- 96
2019-11-18 03:00:00 0.9 20 Noroeste 32 Noroeste 0 -- -- 96
2019-11-18 02:00:00 1.1 15 Oeste 26 Oeste 0 -- -- 95
2019-11-18 01:00:00 1.1 14 Oeste 26 Noroeste 0 -- -- 94
2019-11-18 00:00:00 1.1 16 Noroeste 36 Noroeste 0 -- -- 93
2019-11-17 23:00:00 1.6 26 Noroeste 36 Noroeste 0 -- -- 94
2019-11-17 22:00:00 2 11 Oeste 31 Noroeste 0 -- -- 93
2019-11-17 21:00:00 3.1 23 Noroeste 33 Noroeste 0 -- -- 95
2019-11-17 20:00:00 4 22 Noroeste 36 Noroeste 1.4 -- -- 96
2019-11-17 19:00:00 5.1 21 Noroeste 36 Noroeste 0 -- -- 97
2019-11-17 18:00:00 5.2 22 Noroeste 45 Noroeste 0 -- -- 98
2019-11-17 17:00:00 5.7 27 Noroeste 41 Noroeste 2.4 -- -- 98
2019-11-17 16:00:00 5.7 23 Noroeste 40 Noroeste 0.4 -- -- 97
2019-11-17 15:00:00 5.5 31 Noroeste 50 Oeste 0 -- -- 97
2019-11-17 14:00:00 5.7 29 Oeste 44 Oeste 0.6 -- -- 96
2019-11-17 13:00:00 5 29 Oeste 43 Oeste 2.6 -- -- 95
2019-11-17 12:00:00 5.2 31 Oeste 54 Oeste 0.4 -- -- 94
2019-11-17 11:00:00 4.4 29 Oeste 44 Oeste 0 -- -- 91
2019-11-17 10:00:00 4 21 Noroeste 39 Noroeste 0 -- -- 90
2019-11-17 09:00:00 2.3 21 Oeste 36 Oeste 0 -- -- 91
2019-11-17 08:00:00 1.7 22 Oeste 39 Oeste 0 -- -- 92
2019-11-17 07:00:00 1.3 24 Oeste 42 Oeste 0 -- -- 93
2019-11-17 06:00:00 1.2 27 Noroeste 44 Oeste 0 -- -- 93
2019-11-17 05:00:00 1 27 Oeste 42 Oeste 0 -- -- 92
2019-11-17 04:00:00 0.8 24 Noroeste 37 Oeste 0 -- -- 93
2019-11-17 03:00:00 0.7 26 Noroeste 37 Oeste 0 -- -- 92
2019-11-17 02:00:00 0.3 26 Oeste 39 Noroeste 0 -- -- 91
2019-11-17 01:00:00 0.1 24 Oeste 45 Oeste 0 -- -- 91
2019-11-17 00:00:00 0.2 26 Oeste 41 Oeste 0 -- -- 91
2019-11-16 23:00:00 0 17 Oeste 30 Oeste 0 -- -- 92
2019-11-16 22:00:00 0.8 24 Noroeste 36 Oeste 0 -- -- 91
2019-11-16 21:00:00 1 18 Noroeste 31 Noroeste 0 -- -- 89
2019-11-16 20:00:00 2.3 20 Noroeste 33 Noroeste 0 -- -- 84
2019-11-16 19:00:00 1.7 17 Noroeste 25 Oeste 0 -- -- 85
2019-11-16 18:00:00 2.2 21 Noroeste 39 Noroeste 0 -- -- 80
2019-11-16 17:00:00 3.2 28 Noroeste 46 Noroeste 0 -- -- 74
2019-11-16 16:00:00 3.5 27 Noroeste 46 Noroeste 0 -- -- 74
2019-11-16 15:00:00 3.7 27 Oeste 42 Noroeste 0 -- -- 73
2019-11-16 14:00:00 3.7 27 Noroeste 39 Noroeste 0 -- -- 75
2019-11-16 13:00:00 3 26 Oeste 39 Oeste 0 -- -- 78
2019-11-16 12:00:00 1.8 26 Oeste 44 Noroeste 0 -- -- 87
2019-11-16 11:00:00 -0.7 27 Noroeste 37 Noroeste 0 -- -- 95
2019-11-16 10:00:00 -0.9 25 Oeste 35 Noroeste 0 -- -- 95
2019-11-16 09:00:00 -0.6 19 Noroeste 27 Noroeste 0 -- -- 93
2019-11-16 08:00:00 -1 16 Oeste 29 Noroeste 0 -- -- 94
2019-11-16 07:00:00 -0.8 17 Noroeste 25 Noroeste 0 -- -- 94
2019-11-16 06:00:00 -0.7 16 Noroeste 23 Noroeste 0 -- -- 95
2019-11-16 05:00:00 -0.8 16 Noroeste 26 Noroeste 0.2 -- -- 94
2019-11-16 04:00:00 -0.3 20 Noroeste 36 Noroeste 0 -- -- 93
2019-11-16 03:00:00 -0.2 18 Noroeste 29 Noroeste 0 -- -- 94
2019-11-16 02:00:00 -0.2 21 Noroeste 34 Noroeste 0 -- -- 95
2019-11-16 01:00:00 0.3 15 Noroeste 23 Noroeste 0 -- -- 94
2019-11-16 00:00:00 0.3 18 Noroeste 30 Noroeste 0 -- -- 94